sensor_id;sensor_type;location;lat;lon;timestamp;temperature;humidity
80743;SHT31;70142;50.894;6.052;2024-01-06T00:00:58;7.81;86.15
80743;SHT31;70142;50.894;6.052;2024-01-06T00:03:31;7.84;85.90
80743;SHT31;70142;50.894;6.052;2024-01-06T00:06:05;7.90;86.25
80743;SHT31;70142;50.894;6.052;2024-01-06T00:08:38;7.95;85.91
80743;SHT31;70142;50.894;6.052;2024-01-06T00:11:12;7.99;86.02
80743;SHT31;70142;50.894;6.052;2024-01-06T00:13:46;8.01;85.98
80743;SHT31;70142;50.894;6.052;2024-01-06T00:16:20;8.07;85.73
80743;SHT31;70142;50.894;6.052;2024-01-06T00:18:54;8.15;85.39
80743;SHT31;70142;50.894;6.052;2024-01-06T00:21:27;8.17;85.38
80743;SHT31;70142;50.894;6.052;2024-01-06T00:24:01;8.21;85.47
80743;SHT31;70142;50.894;6.052;2024-01-06T00:26:34;8.20;85.31
80743;SHT31;70142;50.894;6.052;2024-01-06T00:29:08;8.15;85.35
80743;SHT31;70142;50.894;6.052;2024-01-06T00:31:42;8.20;85.42
80743;SHT31;70142;50.894;6.052;2024-01-06T00:34:15;7.97;86.08
80743;SHT31;70142;50.894;6.052;2024-01-06T00:36:48;7.99;86.36
80743;SHT31;70142;50.894;6.052;2024-01-06T00:39:22;8.01;86.25
80743;SHT31;70142;50.894;6.052;2024-01-06T00:41:55;7.98;86.58
80743;SHT31;70142;50.894;6.052;2024-01-06T00:44:30;7.95;86.51
80743;SHT31;70142;50.894;6.052;2024-01-06T00:47:03;7.99;86.54
80743;SHT31;70142;50.894;6.052;2024-01-06T00:49:36;8.02;86.41
80743;SHT31;70142;50.894;6.052;2024-01-06T00:52:10;8.08;86.38
80743;SHT31;70142;50.894;6.052;2024-01-06T00:54:43;8.09;86.18
80743;SHT31;70142;50.894;6.052;2024-01-06T00:57:16;8.11;86.20
80743;SHT31;70142;50.894;6.052;2024-01-06T00:59:51;8.08;86.27
80743;SHT31;70142;50.894;6.052;2024-01-06T01:02:26;8.08;86.41
80743;SHT31;70142;50.894;6.052;2024-01-06T01:04:59;8.12;86.29
80743;SHT31;70142;50.894;6.052;2024-01-06T01:07:34;8.20;86.18
80743;SHT31;70142;50.894;6.052;2024-01-06T01:10:08;8.20;86.29
80743;SHT31;70142;50.894;6.052;2024-01-06T01:12:44;8.31;86.04
80743;SHT31;70142;50.894;6.052;2024-01-06T01:15:19;8.24;85.64
80743;SHT31;70142;50.894;6.052;2024-01-06T01:17:52;8.14;86.20
80743;SHT31;70142;50.894;6.052;2024-01-06T01:20:25;8.15;86.14
80743;SHT31;70142;50.894;6.052;2024-01-06T01:22:59;8.15;86.30
80743;SHT31;70142;50.894;6.052;2024-01-06T01:25:32;7.97;86.84
80743;SHT31;70142;50.894;6.052;2024-01-06T01:28:05;8.04;86.66
80743;SHT31;70142;50.894;6.052;2024-01-06T01:30:40;8.02;86.68
80743;SHT31;70142;50.894;6.052;2024-01-06T01:33:13;7.98;86.93
80743;SHT31;70142;50.894;6.052;2024-01-06T01:35:46;7.99;86.76
80743;SHT31;70142;50.894;6.052;2024-01-06T01:38:20;7.95;87.00
80743;SHT31;70142;50.894;6.052;2024-01-06T01:40:53;7.97;86.95
80743;SHT31;70142;50.894;6.052;2024-01-06T01:43:26;7.90;87.15
80743;SHT31;70142;50.894;6.052;2024-01-06T01:46:02;7.93;87.12
80743;SHT31;70142;50.894;6.052;2024-01-06T01:48:35;7.94;86.94
80743;SHT31;70142;50.894;6.052;2024-01-06T01:51:09;8.05;86.74
80743;SHT31;70142;50.894;6.052;2024-01-06T01:53:42;8.12;86.42
80743;SHT31;70142;50.894;6.052;2024-01-06T01:56:16;8.17;86.16
80743;SHT31;70142;50.894;6.052;2024-01-06T01:58:50;8.11;86.33
80743;SHT31;70142;50.894;6.052;2024-01-06T02:01:25;8.08;86.36
80743;SHT31;70142;50.894;6.052;2024-01-06T02:03:58;8.05;86.30
80743;SHT31;70142;50.894;6.052;2024-01-06T02:06:32;8.07;86.20
80743;SHT31;70142;50.894;6.052;2024-01-06T02:09:05;8.05;86.16
80743;SHT31;70142;50.894;6.052;2024-01-06T02:11:39;8.09;86.22
80743;SHT31;70142;50.894;6.052;2024-01-06T02:14:12;8.05;85.98
80743;SHT31;70142;50.894;6.052;2024-01-06T02:16:46;8.11;85.87
80743;SHT31;70142;50.894;6.052;2024-01-06T02:19:20;7.97;86.20
80743;SHT31;70142;50.894;6.052;2024-01-06T02:21:54;7.94;86.43
80743;SHT31;70142;50.894;6.052;2024-01-06T02:24:28;8.02;86.15
80743;SHT31;70142;50.894;6.052;2024-01-06T02:27:01;8.14;85.83
80743;SHT31;70142;50.894;6.052;2024-01-06T02:29:34;8.12;85.67
80743;SHT31;70142;50.894;6.052;2024-01-06T02:32:08;8.14;85.90
80743;SHT31;70142;50.894;6.052;2024-01-06T02:34:41;8.14;85.74
80743;SHT31;70142;50.894;6.052;2024-01-06T02:37:16;8.08;85.71
80743;SHT31;70142;50.894;6.052;2024-01-06T02:39:49;8.04;85.91
80743;SHT31;70142;50.894;6.052;2024-01-06T02:42:22;8.07;85.84
80743;SHT31;70142;50.894;6.052;2024-01-06T02:44:57;7.99;86.02
80743;SHT31;70142;50.894;6.052;2024-01-06T02:47:30;8.05;86.08
80743;SHT31;70142;50.894;6.052;2024-01-06T02:50:04;8.08;85.95
80743;SHT31;70142;50.894;6.052;2024-01-06T02:52:39;8.11;86.05
80743;SHT31;70142;50.894;6.052;2024-01-06T02:55:12;8.14;85.89
80743;SHT31;70142;50.894;6.052;2024-01-06T02:57:46;8.11;85.83
80743;SHT31;70142;50.894;6.052;2024-01-06T03:00:19;8.07;85.93
80743;SHT31;70142;50.894;6.052;2024-01-06T03:02:52;8.18;85.82
80743;SHT31;70142;50.894;6.052;2024-01-06T03:05:28;8.24;85.62
80743;SHT31;70142;50.894;6.052;2024-01-06T03:08:03;8.22;85.52
80743;SHT31;70142;50.894;6.052;2024-01-06T03:10:37;8.21;85.92
80743;SHT31;70142;50.894;6.052;2024-01-06T03:13:10;8.28;85.74
80743;SHT31;70142;50.894;6.052;2024-01-06T03:15:43;8.34;85.38
80743;SHT31;70142;50.894;6.052;2024-01-06T03:18:16;8.34;85.26
80743;SHT31;70142;50.894;6.052;2024-01-06T03:20:50;8.25;85.72
80743;SHT31;70142;50.894;6.052;2024-01-06T03:23:24;8.18;84.74
80743;SHT31;70142;50.894;6.052;2024-01-06T03:25:57;8.04;83.84
80743;SHT31;70142;50.894;6.052;2024-01-06T03:28:31;7.81;84.69
80743;SHT31;70142;50.894;6.052;2024-01-06T03:31:04;7.85;84.71
80743;SHT31;70142;50.894;6.052;2024-01-06T03:33:37;7.85;84.54
80743;SHT31;70142;50.894;6.052;2024-01-06T03:36:12;7.71;85.06
80743;SHT31;70142;50.894;6.052;2024-01-06T03:38:49;7.76;85.08
80743;SHT31;70142;50.894;6.052;2024-01-06T03:41:22;7.83;84.84
80743;SHT31;70142;50.894;6.052;2024-01-06T03:43:55;7.69;84.70
80743;SHT31;70142;50.894;6.052;2024-01-06T03:46:28;7.60;85.07
80743;SHT31;70142;50.894;6.052;2024-01-06T03:49:02;7.60;85.55
80743;SHT31;70142;50.894;6.052;2024-01-06T03:51:35;7.76;85.25
80743;SHT31;70142;50.894;6.052;2024-01-06T03:54:10;7.80;85.08
80743;SHT31;70142;50.894;6.052;2024-01-06T03:56:43;7.76;83.99
80743;SHT31;70142;50.894;6.052;2024-01-06T03:59:17;7.73;84.47
80743;SHT31;70142;50.894;6.052;2024-01-06T04:01:50;7.66;83.81
80743;SHT31;70142;50.894;6.052;2024-01-06T04:04:23;7.53;84.39
80743;SHT31;70142;50.894;6.052;2024-01-06T04:06:56;7.57;84.28
80743;SHT31;70142;50.894;6.052;2024-01-06T04:09:31;7.63;83.49
80743;SHT31;70142;50.894;6.052;2024-01-06T04:12:05;7.69;83.60
80743;SHT31;70142;50.894;6.052;2024-01-06T04:14:39;7.67;83.48
80743;SHT31;70142;50.894;6.052;2024-01-06T04:17:12;7.62;83.38
80743;SHT31;70142;50.894;6.052;2024-01-06T04:19:45;7.53;83.36
80743;SHT31;70142;50.894;6.052;2024-01-06T04:22:18;7.57;83.33
80743;SHT31;70142;50.894;6.052;2024-01-06T04:24:53;7.63;83.51
80743;SHT31;70142;50.894;6.052;2024-01-06T04:27:26;7.54;83.48
80743;SHT31;70142;50.894;6.052;2024-01-06T04:29:59;7.36;83.01
80743;SHT31;70142;50.894;6.052;2024-01-06T04:32:33;7.23;83.92
80743;SHT31;70142;50.894;6.052;2024-01-06T04:35:07;7.20;84.33
80743;SHT31;70142;50.894;6.052;2024-01-06T04:37:40;7.12;84.08
80743;SHT31;70142;50.894;6.052;2024-01-06T04:40:17;7.12;84.22
80743;SHT31;70142;50.894;6.052;2024-01-06T04:42:50;7.15;83.98
80743;SHT31;70142;50.894;6.052;2024-01-06T04:45:24;7.06;84.13
80743;SHT31;70142;50.894;6.052;2024-01-06T04:47:57;7.16;83.80
80743;SHT31;70142;50.894;6.052;2024-01-06T04:50:30;7.22;83.60
80743;SHT31;70142;50.894;6.052;2024-01-06T04:53:04;7.19;83.36
80743;SHT31;70142;50.894;6.052;2024-01-06T04:55:38;7.15;83.91
80743;SHT31;70142;50.894;6.052;2024-01-06T04:58:11;7.13;83.92
80743;SHT31;70142;50.894;6.052;2024-01-06T05:00:44;7.18;84.30
80743;SHT31;70142;50.894;6.052;2024-01-06T05:03:18;7.18;83.76
80743;SHT31;70142;50.894;6.052;2024-01-06T05:05:51;7.18;84.18
80743;SHT31;70142;50.894;6.052;2024-01-06T05:08:24;7.18;83.91
80743;SHT31;70142;50.894;6.052;2024-01-06T05:10:59;7.19;83.83
80743;SHT31;70142;50.894;6.052;2024-01-06T05:13:36;7.03;83.96
80743;SHT31;70142;50.894;6.052;2024-01-06T05:16:09;7.02;83.97
80743;SHT31;70142;50.894;6.052;2024-01-06T05:18:42;7.03;83.88
80743;SHT31;70142;50.894;6.052;2024-01-06T05:21:16;7.03;83.71
80743;SHT31;70142;50.894;6.052;2024-01-06T05:23:49;7.06;83.69
80743;SHT31;70142;50.894;6.052;2024-01-06T05:26:24;6.85;84.19
80743;SHT31;70142;50.894;6.052;2024-01-06T05:28:57;6.87;84.04
80743;SHT31;70142;50.894;6.052;2024-01-06T05:31:30;6.98;84.10
80743;SHT31;70142;50.894;6.052;2024-01-06T05:34:03;6.77;83.97
80743;SHT31;70142;50.894;6.052;2024-01-06T05:36:37;6.67;84.53
80743;SHT31;70142;50.894;6.052;2024-01-06T05:39:12;6.72;84.70
80743;SHT31;70142;50.894;6.052;2024-01-06T05:41:46;6.63;84.68
80743;SHT31;70142;50.894;6.052;2024-01-06T05:44:20;6.47;85.02
80743;SHT31;70142;50.894;6.052;2024-01-06T05:46:53;6.51;85.05
80743;SHT31;70142;50.894;6.052;2024-01-06T05:49:27;6.44;85.38
80743;SHT31;70142;50.894;6.052;2024-01-06T05:52:00;6.31;85.42
80743;SHT31;70142;50.894;6.052;2024-01-06T05:54:33;6.37;85.75
80743;SHT31;70142;50.894;6.052;2024-01-06T05:57:08;6.37;86.06
80743;SHT31;70142;50.894;6.052;2024-01-06T05:59:41;6.37;85.97
80743;SHT31;70142;50.894;6.052;2024-01-06T06:02:15;6.44;85.78
80743;SHT31;70142;50.894;6.052;2024-01-06T06:04:48;6.41;85.49
80743;SHT31;70142;50.894;6.052;2024-01-06T06:07:21;6.33;85.19
80743;SHT31;70142;50.894;6.052;2024-01-06T06:09:54;6.18;85.69
80743;SHT31;70142;50.894;6.052;2024-01-06T06:12:29;6.20;86.03
80743;SHT31;70142;50.894;6.052;2024-01-06T06:15:05;6.20;86.23
80743;SHT31;70142;50.894;6.052;2024-01-06T06:17:39;6.06;85.94
80743;SHT31;70142;50.894;6.052;2024-01-06T06:20:13;5.92;86.03
80743;SHT31;70142;50.894;6.052;2024-01-06T06:22:46;5.92;86.23
80743;SHT31;70142;50.894;6.052;2024-01-06T06:25:19;5.82;86.40
80743;SHT31;70142;50.894;6.052;2024-01-06T06:27:54;5.96;86.14
80743;SHT31;70142;50.894;6.052;2024-01-06T06:30:27;6.11;85.98
80743;SHT31;70142;50.894;6.052;2024-01-06T06:33:04;6.21;85.47
80743;SHT31;70142;50.894;6.052;2024-01-06T06:35:37;6.31;84.93
80743;SHT31;70142;50.894;6.052;2024-01-06T06:38:10;6.18;85.02
80743;SHT31;70142;50.894;6.052;2024-01-06T06:40:43;6.17;85.76
80743;SHT31;70142;50.894;6.052;2024-01-06T06:43:18;6.14;85.18
80743;SHT31;70142;50.894;6.052;2024-01-06T06:45:51;6.03;84.80
80743;SHT31;70142;50.894;6.052;2024-01-06T06:48:24;6.07;84.79
80743;SHT31;70142;50.894;6.052;2024-01-06T06:50:58;5.99;84.99
80743;SHT31;70142;50.894;6.052;2024-01-06T06:53:31;5.80;85.59
80743;SHT31;70142;50.894;6.052;2024-01-06T06:56:04;5.70;85.60
80743;SHT31;70142;50.894;6.052;2024-01-06T06:58:40;5.58;85.45
80743;SHT31;70142;50.894;6.052;2024-01-06T07:01:13;5.63;85.67
80743;SHT31;70142;50.894;6.052;2024-01-06T07:03:47;5.63;85.70
80743;SHT31;70142;50.894;6.052;2024-01-06T07:06:20;5.56;85.67
80743;SHT31;70142;50.894;6.052;2024-01-06T07:08:53;5.65;85.29
80743;SHT31;70142;50.894;6.052;2024-01-06T07:11:27;5.66;85.79
80743;SHT31;70142;50.894;6.052;2024-01-06T07:14:01;5.79;85.54
80743;SHT31;70142;50.894;6.052;2024-01-06T07:16:35;5.82;85.10
80743;SHT31;70142;50.894;6.052;2024-01-06T07:19:08;5.82;85.02
80743;SHT31;70142;50.894;6.052;2024-01-06T07:21:41;5.76;85.16
80743;SHT31;70142;50.894;6.052;2024-01-06T07:24:14;5.67;85.20
80743;SHT31;70142;50.894;6.052;2024-01-06T07:26:48;5.73;85.18
80743;SHT31;70142;50.894;6.052;2024-01-06T07:29:22;5.72;85.02
80743;SHT31;70142;50.894;6.052;2024-01-06T07:31:55;5.58;85.08
80743;SHT31;70142;50.894;6.052;2024-01-06T07:34:29;5.59;85.49
80743;SHT31;70142;50.894;6.052;2024-01-06T07:37:03;5.59;85.04
80743;SHT31;70142;50.894;6.052;2024-01-06T07:39:36;5.55;85.36
80743;SHT31;70142;50.894;6.052;2024-01-06T07:42:09;5.51;85.06
80743;SHT31;70142;50.894;6.052;2024-01-06T07:44:44;5.59;84.94
80743;SHT31;70142;50.894;6.052;2024-01-06T07:47:17;5.55;84.68
80743;SHT31;70142;50.894;6.052;2024-01-06T07:49:50;5.56;84.78
80743;SHT31;70142;50.894;6.052;2024-01-06T07:52:25;5.58;84.69
80743;SHT31;70142;50.894;6.052;2024-01-06T07:54:58;5.49;84.07
80743;SHT31;70142;50.894;6.052;2024-01-06T07:57:31;5.59;84.26
80743;SHT31;70142;50.894;6.052;2024-01-06T08:00:07;5.65;83.95
80743;SHT31;70142;50.894;6.052;2024-01-06T08:02:43;5.65;83.72
80743;SHT31;70142;50.894;6.052;2024-01-06T08:05:17;5.67;83.96
80743;SHT31;70142;50.894;6.052;2024-01-06T08:07:51;5.90;83.94
80743;SHT31;70142;50.894;6.052;2024-01-06T08:10:25;5.89;82.49
80743;SHT31;70142;50.894;6.052;2024-01-06T08:12:58;5.87;82.97
80743;SHT31;70142;50.894;6.052;2024-01-06T08:15:32;5.90;83.36
80743;SHT31;70142;50.894;6.052;2024-01-06T08:18:06;5.93;82.31
80743;SHT31;70142;50.894;6.052;2024-01-06T08:20:39;5.86;82.78
80743;SHT31;70142;50.894;6.052;2024-01-06T08:23:13;5.87;82.78
80743;SHT31;70142;50.894;6.052;2024-01-06T08:25:46;5.66;82.31
80743;SHT31;70142;50.894;6.052;2024-01-06T08:28:20;5.67;83.79
80743;SHT31;70142;50.894;6.052;2024-01-06T08:30:56;5.79;83.13
80743;SHT31;70142;50.894;6.052;2024-01-06T08:33:29;5.87;82.13
80743;SHT31;70142;50.894;6.052;2024-01-06T08:36:03;5.82;82.42
80743;SHT31;70142;50.894;6.052;2024-01-06T08:38:37;5.86;82.10
80743;SHT31;70142;50.894;6.052;2024-01-06T08:41:10;5.66;82.03
80743;SHT31;70142;50.894;6.052;2024-01-06T08:43:43;5.69;83.12
80743;SHT31;70142;50.894;6.052;2024-01-06T08:46:18;5.60;82.78
80743;SHT31;70142;50.894;6.052;2024-01-06T08:48:51;5.65;82.93
80743;SHT31;70142;50.894;6.052;2024-01-06T08:51:24;5.87;82.34
80743;SHT31;70142;50.894;6.052;2024-01-06T08:53:58;5.95;82.19
80743;SHT31;70142;50.894;6.052;2024-01-06T08:56:32;5.87;82.53
80743;SHT31;70142;50.894;6.052;2024-01-06T08:59:05;5.86;82.71
80743;SHT31;70142;50.894;6.052;2024-01-06T09:01:40;5.79;82.16
80743;SHT31;70142;50.894;6.052;2024-01-06T09:04:14;5.79;82.11
80743;SHT31;70142;50.894;6.052;2024-01-06T09:06:47;5.79;82.57
80743;SHT31;70142;50.894;6.052;2024-01-06T09:09:21;5.80;82.22
80743;SHT31;70142;50.894;6.052;2024-01-06T09:11:55;5.82;82.26
80743;SHT31;70142;50.894;6.052;2024-01-06T09:14:28;5.63;82.85
80743;SHT31;70142;50.894;6.052;2024-01-06T09:17:03;5.67;83.58
80743;SHT31;70142;50.894;6.052;2024-01-06T09:19:37;5.53;82.71
80743;SHT31;70142;50.894;6.052;2024-01-06T09:22:10;5.52;83.59
80743;SHT31;70142;50.894;6.052;2024-01-06T09:24:43;5.53;83.15
80743;SHT31;70142;50.894;6.052;2024-01-06T09:27:16;5.49;83.50
80743;SHT31;70142;50.894;6.052;2024-01-06T09:29:50;5.48;83.48
80743;SHT31;70142;50.894;6.052;2024-01-06T09:32:25;5.53;83.64
80743;SHT31;70142;50.894;6.052;2024-01-06T09:35:00;5.36;84.09
80743;SHT31;70142;50.894;6.052;2024-01-06T09:37:34;5.34;84.21
80743;SHT31;70142;50.894;6.052;2024-01-06T09:40:12;5.41;84.21
80743;SHT31;70142;50.894;6.052;2024-01-06T09:42:46;5.32;84.23
80743;SHT31;70142;50.894;6.052;2024-01-06T09:45:19;5.36;83.91
80743;SHT31;70142;50.894;6.052;2024-01-06T09:47:54;5.27;84.07
80743;SHT31;70142;50.894;6.052;2024-01-06T09:50:28;5.31;84.28
80743;SHT31;70142;50.894;6.052;2024-01-06T09:53:03;5.39;84.20
80743;SHT31;70142;50.894;6.052;2024-01-06T09:55:38;5.42;83.56
80743;SHT31;70142;50.894;6.052;2024-01-06T09:58:14;5.46;83.99
80743;SHT31;70142;50.894;6.052;2024-01-06T10:00:48;5.24;83.97
80743;SHT31;70142;50.894;6.052;2024-01-06T10:03:23;5.22;84.49
80743;SHT31;70142;50.894;6.052;2024-01-06T10:05:58;5.27;84.02
80743;SHT31;70142;50.894;6.052;2024-01-06T10:08:35;5.27;84.94
80743;SHT31;70142;50.894;6.052;2024-01-06T10:11:08;5.35;84.21
80743;SHT31;70142;50.894;6.052;2024-01-06T10:13:42;5.36;83.98
80743;SHT31;70142;50.894;6.052;2024-01-06T10:16:16;5.28;83.80
80743;SHT31;70142;50.894;6.052;2024-01-06T10:18:50;5.36;83.66
80743;SHT31;70142;50.894;6.052;2024-01-06T10:21:28;5.48;84.56
80743;SHT31;70142;50.894;6.052;2024-01-06T10:24:01;5.62;82.87
80743;SHT31;70142;50.894;6.052;2024-01-06T10:26:34;5.65;82.70
80743;SHT31;70142;50.894;6.052;2024-01-06T10:29:07;5.58;82.46
80743;SHT31;70142;50.894;6.052;2024-01-06T10:31:41;5.55;82.98
80743;SHT31;70142;50.894;6.052;2024-01-06T10:34:16;5.56;82.69
80743;SHT31;70142;50.894;6.052;2024-01-06T10:36:50;5.55;83.35
80743;SHT31;70142;50.894;6.052;2024-01-06T10:39:25;5.55;82.73
80743;SHT31;70142;50.894;6.052;2024-01-06T10:42:02;5.58;83.14
80743;SHT31;70142;50.894;6.052;2024-01-06T10:44:39;5.66;82.88
80743;SHT31;70142;50.894;6.052;2024-01-06T10:47:18;5.59;82.91
80743;SHT31;70142;50.894;6.052;2024-01-06T10:49:54;5.38;82.76
80743;SHT31;70142;50.894;6.052;2024-01-06T10:52:33;5.17;83.42
80743;SHT31;70142;50.894;6.052;2024-01-06T10:55:07;5.22;83.77
80743;SHT31;70142;50.894;6.052;2024-01-06T10:57:43;5.22;83.88
80743;SHT31;70142;50.894;6.052;2024-01-06T11:00:17;5.11;84.21
80743;SHT31;70142;50.894;6.052;2024-01-06T11:02:51;5.17;84.70
80743;SHT31;70142;50.894;6.052;2024-01-06T11:05:28;5.31;84.02
80743;SHT31;70142;50.894;6.052;2024-01-06T11:08:03;5.43;83.76
80743;SHT31;70142;50.894;6.052;2024-01-06T11:10:40;5.30;83.88
80743;SHT31;70142;50.894;6.052;2024-01-06T11:13:15;5.27;84.35
80743;SHT31;70142;50.894;6.052;2024-01-06T11:15:53;5.32;83.90
80743;SHT31;70142;50.894;6.052;2024-01-06T11:18:35;5.38;83.91
80743;SHT31;70142;50.894;6.052;2024-01-06T11:21:17;5.42;83.86
80743;SHT31;70142;50.894;6.052;2024-01-06T11:24:16;5.69;83.73
80743;SHT31;70142;50.894;6.052;2024-01-06T11:26:55;5.77;83.05
80743;SHT31;70142;50.894;6.052;2024-01-06T11:29:30;5.95;83.05
80743;SHT31;70142;50.894;6.052;2024-01-06T11:32:20;6.11;82.51
80743;SHT31;70142;50.894;6.052;2024-01-06T11:34:54;6.11;81.54
80743;SHT31;70142;50.894;6.052;2024-01-06T11:37:37;5.87;81.53
80743;SHT31;70142;50.894;6.052;2024-01-06T11:40:32;5.65;83.20
80743;SHT31;70142;50.894;6.052;2024-01-06T11:43:07;5.30;83.23
80743;SHT31;70142;50.894;6.052;2024-01-06T11:45:41;5.12;85.00
80743;SHT31;70142;50.894;6.052;2024-01-06T11:48:15;5.34;84.85
80743;SHT31;70142;50.894;6.052;2024-01-06T11:50:49;5.27;84.43
80743;SHT31;70142;50.894;6.052;2024-01-06T11:53:26;5.36;85.21
80743;SHT31;70142;50.894;6.052;2024-01-06T11:56:00;5.45;84.58
80743;SHT31;70142;50.894;6.052;2024-01-06T11:58:34;5.31;84.35
80743;SHT31;70142;50.894;6.052;2024-01-06T12:01:07;5.15;85.09
80743;SHT31;70142;50.894;6.052;2024-01-06T12:03:40;5.12;84.60
80743;SHT31;70142;50.894;6.052;2024-01-06T12:06:20;5.12;85.08
80743;SHT31;70142;50.894;6.052;2024-01-06T12:09:04;5.28;84.73
80743;SHT31;70142;50.894;6.052;2024-01-06T12:11:37;5.34;84.53
80743;SHT31;70142;50.894;6.052;2024-01-06T12:14:11;5.46;84.44
80743;SHT31;70142;50.894;6.052;2024-01-06T12:16:44;5.51;84.31
80743;SHT31;70142;50.894;6.052;2024-01-06T12:19:17;5.51;84.49
80743;SHT31;70142;50.894;6.052;2024-01-06T12:21:51;5.49;84.31
80743;SHT31;70142;50.894;6.052;2024-01-06T12:24:27;5.65;84.16
80743;SHT31;70142;50.894;6.052;2024-01-06T12:27:01;5.53;84.23
80743;SHT31;70142;50.894;6.052;2024-01-06T12:29:41;5.49;83.72
80743;SHT31;70142;50.894;6.052;2024-01-06T12:32:14;5.39;84.31
80743;SHT31;70142;50.894;6.052;2024-01-06T12:34:47;5.35;83.98
80743;SHT31;70142;50.894;6.052;2024-01-06T12:37:22;5.20;84.76
80743;SHT31;70142;50.894;6.052;2024-01-06T12:39:58;5.21;84.37
80743;SHT31;70142;50.894;6.052;2024-01-06T12:42:31;5.21;84.88
80743;SHT31;70142;50.894;6.052;2024-01-06T12:45:06;5.35;83.86
80743;SHT31;70142;50.894;6.052;2024-01-06T12:47:40;5.22;84.04
80743;SHT31;70142;50.894;6.052;2024-01-06T12:50:14;5.07;83.81
80743;SHT31;70142;50.894;6.052;2024-01-06T12:52:48;4.94;84.92
80743;SHT31;70142;50.894;6.052;2024-01-06T12:55:23;4.91;85.23
80743;SHT31;70142;50.894;6.052;2024-01-06T12:57:56;4.84;85.63
80743;SHT31;70142;50.894;6.052;2024-01-06T13:00:33;4.95;85.97
80743;SHT31;70142;50.894;6.052;2024-01-06T13:03:08;5.01;85.18
80743;SHT31;70142;50.894;6.052;2024-01-06T13:05:41;5.14;85.28
80743;SHT31;70142;50.894;6.052;2024-01-06T13:08:14;5.11;84.64
80743;SHT31;70142;50.894;6.052;2024-01-06T13:10:49;5.10;85.25
80743;SHT31;70142;50.894;6.052;2024-01-06T13:13:22;5.18;84.88
80743;SHT31;70142;50.894;6.052;2024-01-06T13:15:56;5.25;85.06
80743;SHT31;70142;50.894;6.052;2024-01-06T13:18:29;5.24;84.88
80743;SHT31;70142;50.894;6.052;2024-01-06T13:21:03;5.21;84.91
80743;SHT31;70142;50.894;6.052;2024-01-06T13:23:36;5.15;85.17
80743;SHT31;70142;50.894;6.052;2024-01-06T13:26:11;4.95;84.97
80743;SHT31;70142;50.894;6.052;2024-01-06T13:28:44;5.02;85.61
80743;SHT31;70142;50.894;6.052;2024-01-06T13:31:18;5.04;85.10
80743;SHT31;70142;50.894;6.052;2024-01-06T13:33:52;4.98;85.50
80743;SHT31;70142;50.894;6.052;2024-01-06T13:36:25;4.84;85.30
80743;SHT31;70142;50.894;6.052;2024-01-06T13:38:59;4.79;85.31
80743;SHT31;70142;50.894;6.052;2024-01-06T13:41:34;4.90;85.27
80743;SHT31;70142;50.894;6.052;2024-01-06T13:44:07;4.83;85.11
80743;SHT31;70142;50.894;6.052;2024-01-06T13:46:41;4.66;85.48
80743;SHT31;70142;50.894;6.052;2024-01-06T13:49:17;4.64;85.83
80743;SHT31;70142;50.894;6.052;2024-01-06T13:51:53;4.77;85.40
80743;SHT31;70142;50.894;6.052;2024-01-06T13:54:26;4.64;84.75
80743;SHT31;70142;50.894;6.052;2024-01-06T13:57:01;4.67;85.19
80743;SHT31;70142;50.894;6.052;2024-01-06T13:59:34;4.69;85.18
80743;SHT31;70142;50.894;6.052;2024-01-06T14:02:10;4.77;84.94
80743;SHT31;70142;50.894;6.052;2024-01-06T14:04:43;4.71;84.17
80743;SHT31;70142;50.894;6.052;2024-01-06T14:07:17;4.56;84.62
80743;SHT31;70142;50.894;6.052;2024-01-06T14:09:51;4.52;84.83
80743;SHT31;70142;50.894;6.052;2024-01-06T14:12:25;4.61;84.78
80743;SHT31;70142;50.894;6.052;2024-01-06T14:14:59;4.61;84.48
80743;SHT31;70142;50.894;6.052;2024-01-06T14:17:33;4.57;84.16
80743;SHT31;70142;50.894;6.052;2024-01-06T14:20:07;4.59;84.91
80743;SHT31;70142;50.894;6.052;2024-01-06T14:22:44;4.60;84.21
80743;SHT31;70142;50.894;6.052;2024-01-06T14:25:18;4.61;84.34
80743;SHT31;70142;50.894;6.052;2024-01-06T14:27:53;4.61;84.27
80743;SHT31;70142;50.894;6.052;2024-01-06T14:30:27;4.64;84.44
80743;SHT31;70142;50.894;6.052;2024-01-06T14:33:01;4.60;84.74
80743;SHT31;70142;50.894;6.052;2024-01-06T14:35:34;4.63;85.51
80743;SHT31;70142;50.894;6.052;2024-01-06T14:38:07;4.69;84.46
80743;SHT31;70142;50.894;6.052;2024-01-06T14:40:41;4.76;84.21
80743;SHT31;70142;50.894;6.052;2024-01-06T14:43:16;4.85;84.27
80743;SHT31;70142;50.894;6.052;2024-01-06T14:45:49;4.98;84.61
80743;SHT31;70142;50.894;6.052;2024-01-06T14:48:22;4.97;84.10
80743;SHT31;70142;50.894;6.052;2024-01-06T14:50:56;4.98;83.23
80743;SHT31;70142;50.894;6.052;2024-01-06T14:53:29;4.67;83.11
80743;SHT31;70142;50.894;6.052;2024-01-06T14:56:03;4.52;84.40
80743;SHT31;70142;50.894;6.052;2024-01-06T14:58:37;4.47;84.65
80743;SHT31;70142;50.894;6.052;2024-01-06T15:01:11;4.59;84.64
80743;SHT31;70142;50.894;6.052;2024-01-06T15:03:44;4.63;84.56
80743;SHT31;70142;50.894;6.052;2024-01-06T15:06:17;4.63;84.19
80743;SHT31;70142;50.894;6.052;2024-01-06T15:08:51;4.49;84.72
80743;SHT31;70142;50.894;6.052;2024-01-06T15:11:25;4.42;84.91
80743;SHT31;70142;50.894;6.052;2024-01-06T15:14:00;4.40;84.98
80743;SHT31;70142;50.894;6.052;2024-01-06T15:16:38;4.25;85.35
80743;SHT31;70142;50.894;6.052;2024-01-06T15:19:12;4.35;85.62
80743;SHT31;70142;50.894;6.052;2024-01-06T15:21:45;4.52;85.42
80743;SHT31;70142;50.894;6.052;2024-01-06T15:24:24;4.52;84.89
80743;SHT31;70142;50.894;6.052;2024-01-06T15:26:57;4.45;85.09
80743;SHT31;70142;50.894;6.052;2024-01-06T15:29:31;4.53;84.89
80743;SHT31;70142;50.894;6.052;2024-01-06T15:32:06;4.46;84.66
80743;SHT31;70142;50.894;6.052;2024-01-06T15:34:42;4.56;84.61
80743;SHT31;70142;50.894;6.052;2024-01-06T15:37:16;4.49;84.26
80743;SHT31;70142;50.894;6.052;2024-01-06T15:39:49;4.49;84.71
80743;SHT31;70142;50.894;6.052;2024-01-06T15:42:22;4.45;84.54
80743;SHT31;70142;50.894;6.052;2024-01-06T15:44:57;4.54;84.19
80743;SHT31;70142;50.894;6.052;2024-01-06T15:47:30;4.60;84.13
80743;SHT31;70142;50.894;6.052;2024-01-06T15:50:04;4.61;83.74
80743;SHT31;70142;50.894;6.052;2024-01-06T15:52:39;4.56;83.58
80743;SHT31;70142;50.894;6.052;2024-01-06T15:55:13;4.46;83.52
80743;SHT31;70142;50.894;6.052;2024-01-06T15:57:49;4.26;83.76
80743;SHT31;70142;50.894;6.052;2024-01-06T16:00:24;4.17;84.53
80743;SHT31;70142;50.894;6.052;2024-01-06T16:02:59;4.25;84.34
80743;SHT31;70142;50.894;6.052;2024-01-06T16:05:32;4.20;84.44
80743;SHT31;70142;50.894;6.052;2024-01-06T16:08:06;4.33;84.65
80743;SHT31;70142;50.894;6.052;2024-01-06T16:10:39;4.20;83.82
80743;SHT31;70142;50.894;6.052;2024-01-06T16:13:12;4.28;84.62
80743;SHT31;70142;50.894;6.052;2024-01-06T16:15:47;4.29;83.48
80743;SHT31;70142;50.894;6.052;2024-01-06T16:18:20;4.25;83.87
80743;SHT31;70142;50.894;6.052;2024-01-06T16:20:54;4.26;83.43
80743;SHT31;70142;50.894;6.052;2024-01-06T16:23:29;4.32;84.33
80743;SHT31;70142;50.894;6.052;2024-01-06T16:26:02;4.36;83.33
80743;SHT31;70142;50.894;6.052;2024-01-06T16:28:39;4.42;83.16